createdAt,value
2017-08-26T00:01:01.540Z,93.80
2017-08-26T00:03:27.828Z,94.00
2017-08-26T00:05:54.184Z,93.50
2017-08-26T00:08:20.476Z,93.60
2017-08-26T00:10:46.802Z,93.80
2017-08-26T00:13:13.156Z,94.00
2017-08-26T00:15:39.462Z,94.20
2017-08-26T00:18:05.731Z,94.40
2017-08-26T00:20:32.068Z,94.20
2017-08-26T00:22:58.402Z,94.00
2017-08-26T00:25:24.749Z,94.10
2017-08-26T00:27:51.240Z,94.20
2017-08-26T00:30:17.528Z,94.50
2017-08-26T00:32:43.873Z,94.60
2017-08-26T00:35:10.228Z,94.80
2017-08-26T00:37:36.544Z,94.90
2017-08-26T00:40:02.849Z,95.00
2017-08-26T00:42:29.148Z,94.90
2017-08-26T00:44:55.431Z,94.80
2017-08-26T00:47:21.741Z,94.80
2017-08-26T00:49:48.055Z,94.90
2017-08-26T00:52:14.319Z,94.80
2017-08-26T00:54:40.632Z,94.80
2017-08-26T00:57:06.984Z,94.90
2017-08-26T00:59:33.431Z,94.90
2017-08-26T01:01:59.741Z,95.10
2017-08-26T01:04:26.136Z,94.90
2017-08-26T01:06:52.476Z,95.10
2017-08-26T01:09:18.772Z,95.00
2017-08-26T01:11:45.180Z,94.70
2017-08-26T01:14:11.472Z,94.40
2017-08-26T01:16:37.785Z,94.30
2017-08-26T01:19:04.062Z,94.30
2017-08-26T01:21:30.343Z,94.30
2017-08-26T01:23:56.816Z,94.40
2017-08-26T01:26:23.264Z,94.60
2017-08-26T01:28:49.596Z,94.80
2017-08-26T01:31:15.922Z,94.90
2017-08-26T01:33:42.215Z,95.60
2017-08-26T01:36:08.484Z,95.40
2017-08-26T01:38:34.816Z,95.60
2017-08-26T01:41:01.104Z,95.60
2017-08-26T01:43:27.499Z,95.70
2017-08-26T01:45:53.812Z,96.00
2017-08-26T01:48:20.092Z,96.00
2017-08-26T01:50:46.432Z,96.00
2017-08-26T01:53:12.716Z,95.80
2017-08-26T01:55:39.125Z,95.40
2017-08-26T01:58:05.448Z,95.20
2017-08-26T02:00:31.752Z,94.70
2017-08-26T02:02:58.167Z,94.70
2017-08-26T02:05:24.472Z,94.90
2017-08-26T02:07:50.755Z,94.90
2017-08-26T02:10:17.072Z,95.10
2017-08-26T02:12:43.411Z,95.10
2017-08-26T02:15:09.680Z,95.10
2017-08-26T02:17:35.992Z,95.20
2017-08-26T02:20:02.359Z,94.90
2017-08-26T02:22:28.644Z,95.00
2017-08-26T02:24:54.973Z,95.00
2017-08-26T02:27:21.279Z,95.10
2017-08-26T02:29:47.536Z,95.10
2017-08-26T02:32:13.853Z,95.30
2017-08-26T02:34:40.168Z,95.30
2017-08-26T02:37:06.648Z,95.50
2017-08-26T02:39:33.054Z,95.50
2017-08-26T02:41:59.365Z,95.40
2017-08-26T02:44:25.671Z,95.30
2017-08-26T02:46:52.008Z,95.30
2017-08-26T02:49:18.301Z,95.50
2017-08-26T02:51:44.620Z,95.80
2017-08-26T02:54:10.972Z,95.50
2017-08-26T02:56:37.460Z,95.60
2017-08-26T02:59:03.740Z,95.70
2017-08-26T03:01:30.044Z,95.80
2017-08-26T03:03:56.347Z,95.80
2017-08-26T03:06:22.639Z,95.90
2017-08-26T03:08:48.931Z,96.00
2017-08-26T03:11:15.296Z,96.20
2017-08-26T03:13:41.583Z,96.20
2017-08-26T03:16:07.912Z,96.20
2017-08-26T03:18:34.184Z,96.10
2017-08-26T03:21:00.485Z,95.90
2017-08-26T03:23:26.763Z,96.20
2017-08-26T03:25:53.064Z,96.20
2017-08-26T03:28:19.356Z,96.20
2017-08-26T03:30:45.647Z,96.10
2017-08-26T03:33:11.956Z,96.20
2017-08-26T03:35:38.229Z,96.10
2017-08-26T03:38:04.519Z,95.80
2017-08-26T03:40:30.868Z,95.70
2017-08-26T03:42:57.192Z,95.20
2017-08-26T03:45:23.495Z,94.90
2017-08-26T03:47:49.768Z,95.00
2017-08-26T03:50:16.092Z,95.20
2017-08-26T03:52:42.404Z,95.40
2017-08-26T03:55:08.676Z,95.70
2017-08-26T03:57:35.025Z,96.00
2017-08-26T04:00:01.308Z,96.10
2017-08-26T04:02:27.600Z,96.40
2017-08-26T04:04:53.884Z,96.40
2017-08-26T04:07:20.209Z,96.10
2017-08-26T04:09:46.520Z,95.90
2017-08-26T04:12:12.815Z,96.10
2017-08-26T04:14:39.125Z,96.20
2017-08-26T04:17:05.439Z,96.40
2017-08-26T04:19:31.789Z,96.40
2017-08-26T04:21:58.072Z,96.70
2017-08-26T04:24:24.350Z,96.40
2017-08-26T04:26:50.760Z,95.90
2017-08-26T04:29:17.204Z,95.60
2017-08-26T04:31:43.508Z,95.50
2017-08-26T04:34:09.852Z,95.60
2017-08-26T04:36:36.175Z,95.60
2017-08-26T04:39:03.244Z,95.30
2017-08-26T04:41:29.517Z,95.30
2017-08-26T04:43:55.823Z,95.20
2017-08-26T04:46:22.133Z,94.80
2017-08-26T04:48:48.472Z,94.80
2017-08-26T04:51:14.820Z,95.00
2017-08-26T04:53:41.119Z,94.90
2017-08-26T04:56:07.463Z,94.80
2017-08-26T04:58:33.733Z,94.70
2017-08-26T05:01:00.027Z,94.80
2017-08-26T05:03:26.312Z,94.90
2017-08-26T05:05:52.636Z,94.90
2017-08-26T05:08:18.928Z,95.00
2017-08-26T05:10:45.262Z,95.00
2017-08-26T05:13:11.586Z,94.60
2017-08-26T05:15:37.844Z,94.30
2017-08-26T05:18:04.272Z,94.00
2017-08-26T05:20:30.564Z,93.90
2017-08-26T05:22:56.839Z,93.90
2017-08-26T05:25:23.221Z,93.80
2017-08-26T05:27:49.676Z,93.80
2017-08-26T05:30:16.017Z,93.60
2017-08-26T05:32:42.308Z,93.20
2017-08-26T05:35:08.704Z,92.90
2017-08-26T05:37:35.011Z,92.50
2017-08-26T05:40:01.313Z,92.00
2017-08-26T05:42:27.604Z,91.30
2017-08-26T05:44:54.663Z,90.40
2017-08-26T05:47:20.999Z,90.30
2017-08-26T05:49:47.303Z,89.50
2017-08-26T05:52:13.629Z,89.20
2017-08-26T05:54:39.923Z,88.50
2017-08-26T05:57:06.221Z,87.60
2017-08-26T05:59:32.641Z,86.40
2017-08-26T06:01:58.973Z,86.10
2017-08-26T06:04:25.277Z,86.00
2017-08-26T06:06:51.640Z,85.70
2017-08-26T06:09:18.000Z,85.20
2017-08-26T06:11:44.324Z,83.00
2017-08-26T06:14:10.700Z,79.60
2017-08-26T06:16:37.007Z,74.20
2017-08-26T06:19:03.313Z,70.30
2017-08-26T06:21:29.624Z,65.60
2017-08-26T06:23:55.972Z,61.70
2017-08-26T06:26:22.308Z,57.70
2017-08-26T06:28:48.662Z,55.10
2017-08-26T06:31:14.996Z,53.80
2017-08-26T06:33:41.301Z,50.80
2017-08-26T06:36:07.617Z,49.00
2017-08-26T06:38:33.914Z,47.50
2017-08-26T06:41:00.224Z,45.90
2017-08-26T06:43:26.549Z,44.70
2017-08-26T06:45:52.943Z,43.60
2017-08-26T06:48:19.316Z,41.60
2017-08-26T06:50:47.631Z,40.20
2017-08-26T06:53:13.988Z,39.80
2017-08-26T06:55:40.280Z,39.00
2017-08-26T06:58:06.596Z,37.60
2017-08-26T07:00:33.666Z,36.40
2017-08-26T07:02:59.968Z,36.30
2017-08-26T07:05:26.244Z,35.10
2017-08-26T07:07:52.562Z,33.90
2017-08-26T07:10:18.932Z,33.20
2017-08-26T07:12:45.221Z,33.00
2017-08-26T07:15:11.581Z,32.70
2017-08-26T07:17:37.966Z,32.90
2017-08-26T07:20:05.093Z,32.00
2017-08-26T07:22:31.445Z,31.90
2017-08-26T07:24:57.736Z,33.80
2017-08-26T07:27:24.065Z,35.40
2017-08-26T07:29:50.393Z,36.60
2017-08-26T07:32:16.664Z,37.10
2017-08-26T07:34:42.984Z,37.10
2017-08-26T07:37:09.311Z,37.90
2017-08-26T07:39:35.616Z,39.60
2017-08-26T07:42:01.957Z,39.70
2017-08-26T07:44:28.288Z,39.00
2017-08-26T07:46:54.605Z,36.80
2017-08-26T07:49:20.900Z,37.50
2017-08-26T07:51:47.252Z,36.60
2017-08-26T07:54:13.519Z,34.80
2017-08-26T07:56:39.833Z,33.60
2017-08-26T07:59:06.101Z,31.50
2017-08-26T08:01:32.569Z,30.90
2017-08-26T08:03:58.980Z,33.90
2017-08-26T08:06:25.270Z,36.10
2017-08-26T08:08:51.560Z,37.80
2017-08-26T08:11:17.883Z,38.70
2017-08-26T08:13:44.177Z,41.00
2017-08-26T08:16:10.483Z,42.50
2017-08-26T08:18:36.804Z,41.00
2017-08-26T08:21:03.232Z,40.90
2017-08-26T08:23:29.516Z,38.50
2017-08-26T08:25:55.857Z,35.60
2017-08-26T08:28:22.209Z,33.30
2017-08-26T08:30:48.511Z,31.60
2017-08-26T08:33:14.816Z,30.40
2017-08-26T08:35:41.151Z,29.40
2017-08-26T08:38:07.447Z,28.30
2017-08-26T08:40:33.833Z,27.70
2017-08-26T08:43:00.168Z,27.40
2017-08-26T08:45:26.505Z,27.30
2017-08-26T08:47:52.796Z,27.20
2017-08-26T08:50:19.105Z,26.70
2017-08-26T08:52:45.429Z,27.30
2017-08-26T08:55:11.745Z,26.80
2017-08-26T08:57:38.067Z,26.50
2017-08-26T09:00:04.584Z,26.40
2017-08-26T09:02:30.957Z,26.30
2017-08-26T09:04:57.358Z,26.50
2017-08-26T09:07:23.689Z,27.60
2017-08-26T09:09:50.006Z,29.00
2017-08-26T09:12:16.343Z,31.20
2017-08-26T09:14:42.676Z,33.70
2017-08-26T09:17:09.020Z,35.70
2017-08-26T09:19:35.357Z,35.90
2017-08-26T09:22:01.693Z,36.40
2017-08-26T09:24:28.029Z,39.50
2017-08-26T09:26:54.307Z,38.90
2017-08-26T09:29:20.651Z,38.00
2017-08-26T09:31:46.987Z,34.00
2017-08-26T09:34:13.264Z,32.60
2017-08-26T09:36:39.570Z,31.80
2017-08-26T09:39:05.871Z,32.50
2017-08-26T09:41:32.188Z,33.20
2017-08-26T09:43:58.493Z,33.20
2017-08-26T09:46:24.816Z,34.00
2017-08-26T09:48:51.188Z,33.30
2017-08-26T09:51:17.551Z,34.90
2017-08-26T09:53:43.813Z,36.40
2017-08-26T09:56:10.146Z,38.00
2017-08-26T09:58:37.221Z,40.70
2017-08-26T10:01:03.516Z,40.60
2017-08-26T10:03:29.831Z,41.30
2017-08-26T10:05:56.125Z,42.70
2017-08-26T10:08:22.468Z,44.30
2017-08-26T10:10:48.808Z,45.40
2017-08-26T10:13:15.132Z,45.80
2017-08-26T10:15:41.412Z,45.10
2017-08-26T10:18:07.736Z,45.70
2017-08-26T10:20:34.885Z,46.90
2017-08-26T10:23:01.968Z,47.60
2017-08-26T10:25:28.308Z,47.60
2017-08-26T10:27:54.623Z,49.10
2017-08-26T10:30:20.919Z,49.80
2017-08-26T10:32:47.240Z,50.60
2017-08-26T10:35:13.565Z,50.90
2017-08-26T10:37:39.884Z,50.00
2017-08-26T10:40:06.224Z,52.50
2017-08-26T10:42:32.525Z,52.20
2017-08-26T10:44:58.832Z,53.90
2017-08-26T10:47:25.104Z,53.10
2017-08-26T10:49:51.416Z,52.20
2017-08-26T10:52:17.836Z,53.00
2017-08-26T10:54:44.156Z,50.30
2017-08-26T10:57:10.464Z,49.30
2017-08-26T10:59:36.775Z,49.50
2017-08-26T11:02:03.125Z,50.40
2017-08-26T11:04:29.452Z,50.20
2017-08-26T11:06:55.798Z,51.10
2017-08-26T11:09:22.080Z,51.50
2017-08-26T11:11:48.422Z,51.00
2017-08-26T11:14:14.773Z,51.40
2017-08-26T11:16:41.148Z,51.50
2017-08-26T11:19:07.637Z,52.40
2017-08-26T11:21:33.912Z,52.90
2017-08-26T11:24:00.255Z,53.40
2017-08-26T11:26:26.592Z,53.30
2017-08-26T11:28:52.937Z,53.90
2017-08-26T11:31:19.272Z,54.00
2017-08-26T11:33:45.565Z,53.40
2017-08-26T11:36:11.876Z,54.70
2017-08-26T11:38:38.191Z,54.70
2017-08-26T11:41:04.509Z,54.70
2017-08-26T11:43:30.856Z,54.60
2017-08-26T11:45:57.127Z,55.10
2017-08-26T11:48:23.412Z,54.30
2017-08-26T11:50:49.720Z,53.90
2017-08-26T11:53:16.056Z,54.80
2017-08-26T11:55:42.376Z,55.20
2017-08-26T11:58:08.651Z,55.70
2017-08-26T12:00:34.953Z,55.50
2017-08-26T12:03:01.299Z,54.50
2017-08-26T12:05:27.610Z,56.20
2017-08-26T12:07:53.928Z,55.00
2017-08-26T12:10:20.216Z,55.50
2017-08-26T12:12:46.709Z,56.50
2017-08-26T12:15:13.048Z,56.80
2017-08-26T12:17:39.341Z,55.60
2017-08-26T12:20:05.657Z,56.30
2017-08-26T12:22:31.993Z,55.50
2017-08-26T12:24:58.316Z,55.70
2017-08-26T12:27:24.635Z,55.90
2017-08-26T12:29:51.090Z,56.70
2017-08-26T12:32:17.404Z,57.80
2017-08-26T12:34:43.733Z,58.60
2017-08-26T12:37:09.996Z,58.10
2017-08-26T12:39:36.293Z,58.80
2017-08-26T12:42:02.654Z,58.20
2017-08-26T12:44:28.991Z,58.10
2017-08-26T12:46:55.317Z,57.50
2017-08-26T12:49:21.617Z,58.20
2017-08-26T12:51:48.107Z,57.60
2017-08-26T12:54:14.392Z,56.30
2017-08-26T12:56:40.727Z,56.10
2017-08-26T12:59:07.039Z,56.90
2017-08-26T13:01:33.384Z,56.70
2017-08-26T13:03:59.668Z,55.60
2017-08-26T13:06:25.979Z,55.60
2017-08-26T13:08:52.381Z,54.50
2017-08-26T13:11:18.733Z,55.30
2017-08-26T13:13:45.065Z,56.10
2017-08-26T13:16:11.385Z,56.80
2017-08-26T13:18:37.697Z,56.50
2017-08-26T13:21:03.980Z,57.10
2017-08-26T13:23:30.294Z,57.50
2017-08-26T13:25:56.639Z,57.40
2017-08-26T13:28:22.965Z,57.10
2017-08-26T13:30:49.297Z,56.90
2017-08-26T13:33:15.615Z,57.50
2017-08-26T13:35:41.924Z,58.10
2017-08-26T13:38:08.244Z,58.00
2017-08-26T13:40:34.520Z,57.40
2017-08-26T13:43:01.257Z,57.60
2017-08-26T13:45:27.531Z,56.80
2017-08-26T13:47:53.836Z,56.60
2017-08-26T13:50:20.403Z,56.30
2017-08-26T13:52:46.761Z,56.90
2017-08-26T13:55:13.307Z,56.50
2017-08-26T13:57:39.628Z,57.00
2017-08-26T14:00:05.930Z,56.20
2017-08-26T14:02:32.964Z,55.50
2017-08-26T14:04:59.308Z,55.50
2017-08-26T14:07:25.613Z,55.80
2017-08-26T14:09:51.964Z,55.50
2017-08-26T14:12:18.247Z,54.60
2017-08-26T14:14:44.612Z,54.50
2017-08-26T14:17:10.913Z,54.60
2017-08-26T14:19:37.313Z,53.40
2017-08-26T14:22:03.612Z,53.00
2017-08-26T14:24:29.931Z,52.60
2017-08-26T14:26:56.243Z,52.20
2017-08-26T14:29:22.536Z,51.10
2017-08-26T14:31:48.871Z,51.90
2017-08-26T14:34:15.250Z,51.50
2017-08-26T14:36:41.538Z,52.70
2017-08-26T14:39:07.861Z,52.70
2017-08-26T14:41:34.198Z,52.70
2017-08-26T14:44:00.495Z,52.90
2017-08-26T14:46:26.826Z,53.00
2017-08-26T14:48:53.142Z,53.50
2017-08-26T14:51:19.459Z,53.30
2017-08-26T14:53:45.788Z,53.50
2017-08-26T14:56:12.118Z,53.20
2017-08-26T14:58:38.399Z,53.60
2017-08-26T15:01:04.672Z,53.30
2017-08-26T15:03:30.992Z,52.50
2017-08-26T15:05:57.280Z,53.30
2017-08-26T15:08:23.575Z,53.40
2017-08-26T15:10:49.951Z,52.40
2017-08-26T15:13:16.242Z,53.10
2017-08-26T15:15:42.533Z,52.90
2017-08-26T15:18:09.049Z,52.60
2017-08-26T15:20:35.528Z,52.00
2017-08-26T15:23:01.821Z,51.80
2017-08-26T15:25:28.148Z,51.40
2017-08-26T15:27:54.452Z,51.80
2017-08-26T15:30:20.776Z,51.60
2017-08-26T15:32:47.080Z,52.30
2017-08-26T15:35:13.400Z,52.80
2017-08-26T15:37:39.759Z,53.30
2017-08-26T15:40:06.052Z,53.00
2017-08-26T15:42:32.368Z,53.40
2017-08-26T15:44:58.680Z,54.00
2017-08-26T15:47:24.976Z,55.20
2017-08-26T15:49:51.328Z,55.40
2017-08-26T15:52:19.413Z,55.50
2017-08-26T15:54:51.235Z,54.70
2017-08-26T15:57:17.565Z,54.50
2017-08-26T15:59:43.840Z,54.70
2017-08-26T16:02:10.143Z,54.80
2017-08-26T16:04:36.455Z,54.70
2017-08-26T16:07:02.736Z,55.10
2017-08-26T16:09:29.141Z,55.20
2017-08-26T16:11:55.478Z,55.60
2017-08-26T16:14:21.789Z,55.30
2017-08-26T16:16:48.140Z,55.70
2017-08-26T16:19:14.466Z,55.40
2017-08-26T16:21:40.780Z,55.40
2017-08-26T16:24:07.848Z,55.40
2017-08-26T16:26:34.159Z,55.40
2017-08-26T16:29:00.472Z,55.80
2017-08-26T16:31:26.939Z,56.50
2017-08-26T16:33:53.379Z,56.90
2017-08-26T16:36:19.715Z,56.90
2017-08-26T16:38:46.039Z,57.30
2017-08-26T16:41:12.336Z,57.60
2017-08-26T16:43:38.709Z,57.30
2017-08-26T16:46:04.995Z,58.00
2017-08-26T16:48:31.316Z,58.90
2017-08-26T16:50:57.669Z,58.90
2017-08-26T16:53:24.031Z,59.10
2017-08-26T16:55:50.303Z,59.30
2017-08-26T16:58:16.619Z,59.80
2017-08-26T17:00:42.959Z,59.80
2017-08-26T17:03:09.248Z,60.10
2017-08-26T17:05:35.587Z,60.30
2017-08-26T17:08:01.948Z,60.70
2017-08-26T17:10:28.248Z,61.00
2017-08-26T17:12:54.558Z,61.10
2017-08-26T17:15:20.918Z,62.00
2017-08-26T17:17:47.216Z,61.70
2017-08-26T17:20:13.516Z,61.80
2017-08-26T17:22:39.855Z,63.40
2017-08-26T17:25:06.896Z,63.20
2017-08-26T17:27:33.276Z,63.20
2017-08-26T17:29:59.590Z,63.00
2017-08-26T17:32:25.924Z,63.30
2017-08-26T17:34:52.276Z,63.40
2017-08-26T17:37:18.763Z,63.60
2017-08-26T17:39:45.177Z,63.60
2017-08-26T17:42:11.518Z,63.90
2017-08-26T17:44:37.864Z,64.60
2017-08-26T17:47:04.156Z,64.90
2017-08-26T17:49:30.508Z,65.10
2017-08-26T17:51:56.841Z,65.50
2017-08-26T17:54:23.202Z,65.80
2017-08-26T17:56:49.547Z,66.40
2017-08-26T17:59:15.867Z,67.10
2017-08-26T18:01:42.206Z,67.30
2017-08-26T18:04:08.504Z,67.40
2017-08-26T18:06:34.841Z,67.80
2017-08-26T18:09:01.164Z,68.00
2017-08-26T18:11:27.459Z,68.60
2017-08-26T18:13:53.798Z,68.90
2017-08-26T18:16:20.119Z,69.40
2017-08-26T18:18:46.489Z,69.40
2017-08-26T18:21:13.056Z,70.20
2017-08-26T18:23:39.377Z,70.80
2017-08-26T18:26:05.748Z,70.80
2017-08-26T18:28:32.109Z,71.30
2017-08-26T18:30:58.408Z,71.50
2017-08-26T18:33:24.755Z,71.70
2017-08-26T18:35:51.053Z,72.10
2017-08-26T18:38:17.355Z,72.20
2017-08-26T18:40:43.676Z,72.80
2017-08-26T18:43:10.040Z,72.80
2017-08-26T18:45:36.353Z,72.90
2017-08-26T18:48:02.628Z,73.60
2017-08-26T18:50:28.976Z,74.50
2017-08-26T18:52:55.456Z,75.00
2017-08-26T18:55:21.790Z,75.00
2017-08-26T18:57:48.152Z,74.80
2017-08-26T19:00:15.208Z,75.30
2017-08-26T19:02:41.539Z,75.20
2017-08-26T19:05:07.870Z,75.20
2017-08-26T19:07:34.911Z,75.80
2017-08-26T19:10:01.215Z,75.80
2017-08-26T19:12:27.582Z,75.90
2017-08-26T19:14:53.872Z,76.80
2017-08-26T19:17:20.179Z,77.00
2017-08-26T19:19:46.476Z,77.40
2017-08-26T19:22:12.839Z,77.90
2017-08-26T19:24:39.191Z,78.30
2017-08-26T19:27:05.488Z,78.50
2017-08-26T19:29:31.833Z,78.90
2017-08-26T19:31:58.187Z,79.40
2017-08-26T19:34:24.512Z,80.00
2017-08-26T19:36:50.892Z,80.00
2017-08-26T19:39:17.277Z,80.40
2017-08-26T19:41:43.576Z,80.60
2017-08-26T19:44:09.928Z,81.40
2017-08-26T19:46:36.265Z,81.60
2017-08-26T19:49:02.562Z,82.20
2017-08-26T19:51:29.065Z,82.30
2017-08-26T19:53:55.385Z,83.30
2017-08-26T19:56:21.964Z,84.50
2017-08-26T19:58:48.310Z,85.00
2017-08-26T20:01:14.612Z,85.10
2017-08-26T20:03:41.039Z,85.50
2017-08-26T20:06:07.412Z,86.60
2017-08-26T20:08:33.753Z,87.10
2017-08-26T20:11:00.068Z,87.30
2017-08-26T20:13:26.419Z,87.80
2017-08-26T20:15:52.803Z,88.20
2017-08-26T20:18:19.100Z,88.80
2017-08-26T20:20:45.463Z,89.50
2017-08-26T20:23:11.796Z,90.10
2017-08-26T20:25:38.109Z,90.10
2017-08-26T20:28:04.423Z,90.60
2017-08-26T20:30:30.745Z,91.10
2017-08-26T20:32:57.065Z,91.20
2017-08-26T20:35:23.346Z,91.40
2017-08-26T20:37:49.672Z,91.70
2017-08-26T20:40:15.983Z,91.80
2017-08-26T20:42:42.324Z,92.00
2017-08-26T20:45:08.672Z,92.20
2017-08-26T20:47:34.982Z,92.70
2017-08-26T20:50:01.309Z,92.50
2017-08-26T20:52:27.617Z,92.40
2017-08-26T20:54:53.973Z,92.40
2017-08-26T20:57:20.340Z,93.20
2017-08-26T20:59:46.624Z,92.90
2017-08-26T21:02:13.083Z,93.20
2017-08-26T21:04:39.399Z,93.20
2017-08-26T21:07:05.698Z,93.30
2017-08-26T21:09:32.056Z,92.90
2017-08-26T21:11:58.356Z,93.30
2017-08-26T21:14:24.688Z,93.10
2017-08-26T21:16:51.011Z,93.30
2017-08-26T21:19:17.326Z,93.30
2017-08-26T21:21:43.684Z,93.30
2017-08-26T21:24:10.055Z,93.20
2017-08-26T21:26:36.345Z,93.40
2017-08-26T21:29:02.690Z,93.10
2017-08-26T21:31:28.996Z,93.30
2017-08-26T21:33:55.551Z,93.30
2017-08-26T21:36:21.832Z,93.10
2017-08-26T21:38:48.136Z,93.10
2017-08-26T21:41:14.455Z,93.00
2017-08-26T21:43:40.748Z,93.00
2017-08-26T21:46:07.096Z,93.10
2017-08-26T21:48:33.372Z,93.10
2017-08-26T21:50:59.647Z,93.20
2017-08-26T21:53:25.957Z,93.30
2017-08-26T21:55:52.293Z,93.50
2017-08-26T21:58:18.646Z,93.70
2017-08-26T22:00:44.924Z,93.70
2017-08-26T22:03:11.368Z,93.80
2017-08-26T22:05:37.677Z,93.90
2017-08-26T22:08:03.996Z,94.00
2017-08-26T22:10:30.287Z,94.10
2017-08-26T22:12:56.600Z,94.40
2017-08-26T22:15:23.112Z,94.50
2017-08-26T22:17:49.579Z,94.70
2017-08-26T22:20:15.973Z,94.70
2017-08-26T22:22:42.272Z,94.80
2017-08-26T22:25:08.696Z,94.90
2017-08-26T22:27:34.987Z,95.10
2017-08-26T22:30:01.359Z,95.20
2017-08-26T22:32:27.664Z,95.30
2017-08-26T22:34:53.953Z,95.50
2017-08-26T22:37:20.268Z,95.80
2017-08-26T22:39:46.602Z,95.90
2017-08-26T22:42:12.896Z,95.90
2017-08-26T22:44:39.236Z,95.80
2017-08-26T22:47:05.550Z,95.70
2017-08-26T22:49:31.919Z,95.80
2017-08-26T22:51:58.252Z,96.00
2017-08-26T22:54:24.543Z,96.20
2017-08-26T22:56:50.875Z,96.30
2017-08-26T22:59:17.204Z,96.40
2017-08-26T23:01:44.456Z,96.80
2017-08-26T23:04:10.822Z,96.50
2017-08-26T23:06:37.184Z,97.10
2017-08-26T23:09:03.482Z,97.20
2017-08-26T23:11:29.783Z,97.20
2017-08-26T23:13:56.107Z,97.40
2017-08-26T23:16:22.447Z,97.70
2017-08-26T23:18:48.831Z,98.10
2017-08-26T23:21:15.304Z,98.10
2017-08-26T23:23:41.603Z,98.10
2017-08-26T23:26:07.936Z,98.30
2017-08-26T23:28:34.300Z,98.80
2017-08-26T23:31:00.560Z,98.90
2017-08-26T23:33:26.864Z,98.90
2017-08-26T23:35:53.213Z,99.00
2017-08-26T23:38:19.585Z,98.90
2017-08-26T23:40:45.887Z,98.80
2017-08-26T23:43:12.176Z,98.70
2017-08-26T23:45:38.489Z,98.70
2017-08-26T23:48:04.770Z,98.70
2017-08-26T23:50:31.080Z,98.80
2017-08-26T23:52:58.084Z,98.80
2017-08-26T23:55:24.376Z,98.80
2017-08-26T23:57:50.699Z,98.80
